createdAt,value
2023-03-28T00:02:06.087Z,101421.47
2023-03-28T00:04:34.178Z,101423.22
2023-03-28T00:07:02.158Z,101422.34
2023-03-28T00:09:31.547Z,101424.00
2023-03-28T00:11:59.471Z,101424.00
2023-03-28T00:14:27.383Z,101424.78
2023-03-28T00:16:55.107Z,101433.28
2023-03-28T00:19:23.037Z,101432.44
2023-03-28T00:21:51.641Z,101434.25
2023-03-28T00:24:21.569Z,101443.59
2023-03-28T00:26:54.530Z,101443.63
2023-03-28T00:29:26.085Z,101444.50
2023-03-28T00:31:54.022Z,101451.34
2023-03-28T00:34:22.101Z,101449.66
2023-03-28T00:36:50.740Z,101446.22
2023-03-28T00:39:18.464Z,101444.50
2023-03-28T00:41:46.823Z,101440.31
2023-03-28T00:44:45.610Z,101445.44
2023-03-28T00:47:25.821Z,101453.22
2023-03-28T00:49:57.000Z,101455.75
2023-03-28T00:52:29.627Z,101456.56
2023-03-28T00:54:59.460Z,101454.00
2023-03-28T00:57:30.068Z,101452.31
2023-03-28T00:59:59.461Z,101450.53
2023-03-28T01:02:27.854Z,101453.13
2023-03-28T01:05:00.409Z,101451.47
2023-03-28T01:07:35.272Z,101446.31
2023-03-28T01:10:05.128Z,101451.44
2023-03-28T01:12:34.483Z,101453.09
2023-03-28T01:15:05.353Z,101443.72
2023-03-28T01:17:46.368Z,101454.75
2023-03-28T01:20:32.647Z,101454.72
2023-03-28T01:23:23.860Z,101456.47
2023-03-28T01:26:18.537Z,101449.69
2023-03-28T01:29:12.416Z,101457.38
2023-03-28T01:32:08.062Z,101461.59
2023-03-28T01:35:33.109Z,101470.13
2023-03-28T01:38:10.720Z,101469.16
2023-03-28T01:40:47.604Z,101472.66
2023-03-28T01:43:27.187Z,101477.78
2023-03-28T01:46:00.403Z,101478.59
2023-03-28T01:48:41.180Z,101474.31
2023-03-28T01:51:16.167Z,101480.28
2023-03-28T01:53:48.886Z,101475.13
2023-03-28T01:56:23.872Z,101480.03
2023-03-28T01:58:57.256Z,101485.84
2023-03-28T02:01:46.778Z,101488.38
2023-03-28T02:04:21.397Z,101486.59
2023-03-28T02:07:01.903Z,101492.41
2023-03-28T02:09:37.699Z,101488.78
2023-03-28T02:12:12.480Z,101484.41
2023-03-28T02:14:58.267Z,101490.91
2023-03-28T02:18:00.992Z,101491.63
2023-03-28T02:20:57.607Z,101492.38
2023-03-28T02:23:48.869Z,101485.41
2023-03-28T02:26:34.854Z,101488.59
2023-03-28T02:29:16.812Z,101487.69
2023-03-28T02:31:52.775Z,101486.09
2023-03-28T02:34:20.731Z,101477.63
2023-03-28T02:36:58.105Z,101481.06
2023-03-28T02:39:47.019Z,101482.22
2023-03-28T02:42:36.383Z,101482.38
2023-03-28T02:45:39.643Z,101481.69
2023-03-28T02:48:20.128Z,101478.53
2023-03-28T02:50:57.515Z,101477.59
2023-03-28T02:53:33.483Z,101479.34
2023-03-28T02:56:07.942Z,101480.28
2023-03-28T02:58:58.409Z,101486.19
2023-03-28T03:01:29.320Z,101492.63
2023-03-28T03:03:58.345Z,101483.63
2023-03-28T03:06:26.427Z,101484.13
2023-03-28T03:08:54.656Z,101488.31
2023-03-28T03:11:27.927Z,101493.22
2023-03-28T03:14:00.096Z,101494.91
2023-03-28T03:16:29.623Z,101485.59
2023-03-28T03:18:59.579Z,101491.59
2023-03-28T03:21:28.073Z,101490.72
2023-03-28T03:23:56.202Z,101488.19
2023-03-28T03:26:24.148Z,101482.03
2023-03-28T03:29:01.459Z,101490.59
2023-03-28T03:31:30.099Z,101494.78
2023-03-28T03:34:05.882Z,101491.34
2023-03-28T03:36:40.546Z,101487.84
2023-03-28T03:39:09.167Z,101485.31
2023-03-28T03:41:37.710Z,101486.19
2023-03-28T03:44:09.079Z,101486.25
2023-03-28T03:46:37.777Z,101482.78
2023-03-28T03:49:05.856Z,101482.88
2023-03-28T03:51:34.886Z,101485.38
2023-03-28T03:54:02.675Z,101482.00
2023-03-28T03:56:35.796Z,101489.59
2023-03-28T03:59:03.572Z,101490.41
2023-03-28T04:01:34.864Z,101489.69
2023-03-28T04:04:34.844Z,101491.44
2023-03-28T04:07:12.476Z,101503.25
2023-03-28T04:09:40.358Z,101501.53
2023-03-28T04:12:09.607Z,101498.97
2023-03-28T04:14:57.809Z,101504.06
2023-03-28T04:17:56.920Z,101500.59
2023-03-28T04:20:29.842Z,101501.56
2023-03-28T04:23:09.689Z,101505.84
2023-03-28T04:25:41.906Z,101504.94
2023-03-28T04:28:17.323Z,101516.09
2023-03-28T04:30:59.599Z,101511.84
2023-03-28T04:33:47.694Z,101514.41
2023-03-28T04:36:18.939Z,101519.38
2023-03-28T04:38:58.282Z,101519.38
2023-03-28T04:41:46.078Z,101510.94
2023-03-28T04:44:26.568Z,101512.53
2023-03-28T04:47:03.312Z,101527.94
2023-03-28T04:49:33.141Z,101523.72
2023-03-28T04:52:01.185Z,101526.28
2023-03-28T04:54:29.560Z,101527.06
2023-03-28T04:57:06.732Z,101539.03
2023-03-28T04:59:44.242Z,101535.69
2023-03-28T05:02:18.390Z,101539.94
2023-03-28T05:05:04.784Z,101541.63
2023-03-28T05:07:33.691Z,101539.91
2023-03-28T05:10:01.444Z,101542.41
2023-03-28T05:12:35.720Z,101546.63
2023-03-28T05:15:06.215Z,101549.13
2023-03-28T05:17:40.977Z,101554.28
2023-03-28T05:20:21.399Z,101556.03
2023-03-28T05:22:53.412Z,101558.53
2023-03-28T05:25:21.962Z,101565.31
2023-03-28T05:27:50.407Z,101561.00
2023-03-28T05:30:18.134Z,101566.19
2023-03-28T05:32:47.996Z,101558.53
2023-03-28T05:35:17.796Z,101573.03
2023-03-28T05:37:48.175Z,101567.13
2023-03-28T05:40:16.873Z,101567.19
2023-03-28T05:42:44.898Z,101572.34
2023-03-28T05:45:19.597Z,101579.25
2023-03-28T05:48:00.394Z,101575.78
2023-03-28T05:50:28.736Z,101586.06
2023-03-28T05:53:02.828Z,101581.06
2023-03-28T05:55:31.547Z,101583.81
2023-03-28T05:58:00.187Z,101581.25
2023-03-28T06:00:37.156Z,101590.75
2023-03-28T06:03:05.811Z,101595.19
2023-03-28T06:05:37.657Z,101593.47
2023-03-28T06:08:20.203Z,101597.91
2023-03-28T06:10:49.447Z,101591.19
2023-03-28T06:13:28.858Z,101589.66
2023-03-28T06:15:56.686Z,101594.09
2023-03-28T06:18:32.988Z,101595.13
2023-03-28T06:21:01.164Z,101592.72
2023-03-28T06:23:30.627Z,101586.00
2023-03-28T06:25:58.927Z,101591.22
2023-03-28T06:28:33.289Z,101592.97
2023-03-28T06:31:21.726Z,101598.84
2023-03-28T06:33:50.745Z,101602.31
2023-03-28T06:36:21.748Z,101600.72
2023-03-28T06:38:53.538Z,101601.69
2023-03-28T06:41:22.873Z,101598.38
2023-03-28T06:43:51.722Z,101601.94
2023-03-28T06:46:58.087Z,101603.81
2023-03-28T06:49:26.472Z,101600.72
2023-03-28T06:52:23.408Z,101600.00
2023-03-28T06:54:54.626Z,101599.34
2023-03-28T06:57:22.549Z,101605.44
2023-03-28T06:59:53.827Z,101610.63
2023-03-28T07:02:28.810Z,101598.75
2023-03-28T07:05:02.508Z,101595.47
2023-03-28T07:07:30.293Z,101604.97
2023-03-28T07:10:00.514Z,101604.16
2023-03-28T07:12:28.259Z,101611.09
2023-03-28T07:14:56.471Z,101610.34
2023-03-28T07:17:25.015Z,101609.63
2023-03-28T07:19:54.457Z,101610.59
2023-03-28T07:22:23.572Z,101597.84
2023-03-28T07:24:51.358Z,101608.25
2023-03-28T07:27:23.819Z,101613.38
2023-03-28T07:29:52.883Z,101604.06
2023-03-28T07:32:20.915Z,101610.16
2023-03-28T07:34:49.178Z,101618.78
2023-03-28T07:37:24.564Z,101613.66
2023-03-28T07:40:10.772Z,101624.78
2023-03-28T07:42:42.310Z,101613.66
2023-03-28T07:45:11.790Z,101613.66
2023-03-28T07:47:39.640Z,101620.38
2023-03-28T07:50:08.673Z,101609.75
2023-03-28T07:52:36.610Z,101618.63
2023-03-28T07:55:04.759Z,101617.59
2023-03-28T07:57:36.884Z,101615.47
2023-03-28T08:00:17.749Z,101619.34
2023-03-28T08:03:01.753Z,101619.03
2023-03-28T08:05:29.696Z,101612.88
2023-03-28T08:07:58.576Z,101604.63
2023-03-28T08:10:27.058Z,101607.41
2023-03-28T08:12:55.616Z,101618.06
2023-03-28T08:15:24.773Z,101616.34
2023-03-28T08:17:52.931Z,101610.97
2023-03-28T08:20:21.420Z,101603.19
2023-03-28T08:23:21.438Z,101594.06
2023-03-28T08:26:08.285Z,101596.75
2023-03-28T08:28:39.558Z,101596.88
2023-03-28T08:31:14.127Z,101592.72
2023-03-28T08:33:45.480Z,101590.22
2023-03-28T08:36:14.826Z,101587.25
2023-03-28T08:38:46.804Z,101580.56
2023-03-28T08:41:31.238Z,101585.25
2023-03-28T08:44:18.659Z,101587.31
2023-03-28T08:46:52.144Z,101594.31
2023-03-28T08:49:20.848Z,101587.06
2023-03-28T08:51:52.702Z,101582.53
2023-03-28T08:54:25.886Z,101585.75
2023-03-28T08:56:57.010Z,101585.19
2023-03-28T08:59:30.484Z,101593.44
2023-03-28T09:02:00.290Z,101597.31
2023-03-28T09:04:33.014Z,101593.81
2023-03-28T09:07:20.297Z,101603.25
2023-03-28T09:09:56.901Z,101606.56
2023-03-28T09:12:47.191Z,101599.34
2023-03-28T09:15:25.475Z,101596.91
2023-03-28T09:18:07.709Z,101596.31
2023-03-28T09:20:44.719Z,101604.69
2023-03-28T09:24:03.969Z,101591.25
2023-03-28T09:26:58.543Z,101591.34
2023-03-28T09:29:28.671Z,101575.91
2023-03-28T09:32:02.484Z,101576.06
2023-03-28T09:34:40.598Z,101573.41
2023-03-28T09:37:18.279Z,101556.72
2023-03-28T09:39:51.624Z,101549.91
2023-03-28T09:42:36.250Z,101552.72
2023-03-28T09:45:47.061Z,101556.41
2023-03-28T09:48:48.440Z,101549.84
2023-03-28T09:51:21.739Z,101537.09
2023-03-28T09:53:49.738Z,101535.63
2023-03-28T09:56:27.683Z,101543.41
2023-03-28T09:59:02.761Z,101546.38
2023-03-28T10:01:47.896Z,101542.91
2023-03-28T10:04:36.886Z,101541.31
2023-03-28T10:07:32.599Z,101529.41
2023-03-28T10:10:21.675Z,101515.00
2023-03-28T10:12:58.386Z,101512.41
2023-03-28T10:15:34.233Z,101519.59
2023-03-28T10:18:28.074Z,101526.97
2023-03-28T10:21:16.847Z,101515.97
2023-03-28T10:23:58.693Z,101506.63
2023-03-28T10:26:28.384Z,101514.53
2023-03-28T10:29:04.305Z,101509.50
2023-03-28T10:31:34.232Z,101516.00
2023-03-28T10:34:37.910Z,101512.97
2023-03-28T10:37:24.693Z,101512.53
2023-03-28T10:40:25.729Z,101510.13
2023-03-28T10:43:21.982Z,101506.09
2023-03-28T10:46:08.733Z,101501.28
2023-03-28T10:48:53.954Z,101492.88
2023-03-28T10:51:24.695Z,101508.00
2023-03-28T10:54:26.481Z,101504.25
2023-03-28T10:56:59.443Z,101498.88
2023-03-28T10:59:46.909Z,101495.88
2023-03-28T11:02:35.348Z,101497.28
2023-03-28T11:05:21.752Z,101495.25
2023-03-28T11:07:55.585Z,101488.50
2023-03-28T11:11:00.095Z,101472.00
2023-03-28T11:13:49.501Z,101482.03
2023-03-28T11:16:35.308Z,101469.31
2023-03-28T11:19:34.063Z,101473.00
2023-03-28T11:22:14.755Z,101470.16
2023-03-28T11:24:58.804Z,101462.28
2023-03-28T11:27:54.865Z,101460.69
2023-03-28T11:30:36.416Z,101455.47
2023-03-28T11:33:30.436Z,101458.91
2023-03-28T11:36:08.901Z,101452.63
2023-03-28T11:38:41.502Z,101451.16
2023-03-28T11:41:13.991Z,101444.78
2023-03-28T11:44:04.283Z,101441.41
2023-03-28T11:46:38.363Z,101437.41
2023-03-28T11:49:15.311Z,101428.56
2023-03-28T11:51:50.032Z,101413.91
2023-03-28T11:54:21.331Z,101427.00
2023-03-28T11:56:56.208Z,101423.81
2023-03-28T11:59:55.447Z,101426.16
2023-03-28T12:02:42.351Z,101410.28
2023-03-28T12:05:20.883Z,101408.25
2023-03-28T12:07:53.734Z,101402.53
2023-03-28T12:10:29.384Z,101397.31
2023-03-28T12:13:07.175Z,101394.31
2023-03-28T12:15:47.321Z,101390.72
2023-03-28T12:18:29.106Z,101384.66
2023-03-28T12:21:03.459Z,101377.75
2023-03-28T12:23:50.173Z,101373.91
2023-03-28T12:26:56.037Z,101367.13
2023-03-28T12:29:32.654Z,101362.50
2023-03-28T12:32:05.245Z,101357.78
2023-03-28T12:34:40.571Z,101352.78
2023-03-28T12:37:23.416Z,101353.47
2023-03-28T12:39:59.513Z,101358.13
2023-03-28T12:42:31.060Z,101359.66
2023-03-28T12:45:01.977Z,101355.22
2023-03-28T12:47:36.430Z,101345.53
2023-03-28T12:50:11.262Z,101334.81
2023-03-28T12:52:43.761Z,101320.69
2023-03-28T12:55:43.781Z,101322.88
2023-03-28T12:58:21.074Z,101312.13
2023-03-28T13:01:27.239Z,101315.69
2023-03-28T13:04:27.463Z,101313.69
2023-03-28T13:07:24.850Z,101305.66
2023-03-28T13:10:08.174Z,101299.97
2023-03-28T13:12:53.960Z,101302.44
2023-03-28T13:15:28.500Z,101299.50
2023-03-28T13:18:32.656Z,101285.75
2023-03-28T13:21:04.292Z,101283.53
2023-03-28T13:23:46.085Z,101292.47
2023-03-28T13:26:14.888Z,101281.00
2023-03-28T13:28:45.789Z,101277.03
2023-03-28T13:31:22.012Z,101272.25
2023-03-28T13:33:55.076Z,101267.94
2023-03-28T13:36:26.748Z,101262.28
2023-03-28T13:39:09.541Z,101261.91
2023-03-28T13:41:59.470Z,101258.50
2023-03-28T13:44:34.746Z,101255.66
2023-03-28T13:47:02.944Z,101258.41
2023-03-28T13:49:42.767Z,101256.75
2023-03-28T13:52:16.074Z,101245.09
2023-03-28T13:54:46.627Z,101243.19
2023-03-28T13:57:18.679Z,101235.63
2023-03-28T13:59:53.032Z,101228.19
2023-03-28T14:02:23.599Z,101223.38
2023-03-28T14:04:54.378Z,101222.09
2023-03-28T14:07:27.118Z,101230.59
2023-03-28T14:09:58.108Z,101221.53
2023-03-28T14:12:30.571Z,101227.69
2023-03-28T14:15:00.004Z,101219.00
2023-03-28T14:17:33.102Z,101217.69
2023-03-28T14:20:03.908Z,101212.13
2023-03-28T14:22:33.841Z,101199.53
2023-03-28T14:25:06.659Z,101196.41
2023-03-28T14:27:38.852Z,101197.28
2023-03-28T14:30:19.500Z,101195.63
2023-03-28T14:32:58.694Z,101181.91
2023-03-28T14:35:29.693Z,101169.34
2023-03-28T14:37:59.741Z,101175.31
2023-03-28T14:40:35.362Z,101175.63
2023-03-28T14:43:05.458Z,101166.69
2023-03-28T14:45:37.413Z,101161.84
2023-03-28T14:48:07.638Z,101159.22
2023-03-28T14:50:38.927Z,101148.31
2023-03-28T14:53:10.060Z,101142.00
2023-03-28T14:55:41.889Z,101131.94
2023-03-28T14:58:13.446Z,101131.19
2023-03-28T15:00:43.410Z,101129.72
2023-03-28T15:03:13.932Z,101128.13
2023-03-28T15:05:44.599Z,101125.09
2023-03-28T15:08:25.428Z,101121.34
2023-03-28T15:10:56.963Z,101121.91
2023-03-28T15:13:29.986Z,101119.19
2023-03-28T15:15:59.299Z,101121.56
2023-03-28T15:18:33.385Z,101119.59
2023-03-28T15:21:04.522Z,101113.69
2023-03-28T15:23:38.266Z,101098.06
2023-03-28T15:26:14.141Z,101100.53
2023-03-28T15:28:42.306Z,101107.84
2023-03-28T15:31:15.192Z,101100.16
2023-03-28T15:33:46.771Z,101095.00
2023-03-28T15:36:17.372Z,101092.09
2023-03-28T15:38:45.613Z,101088.91
2023-03-28T15:41:22.310Z,101083.41
2023-03-28T15:44:11.555Z,101082.66
2023-03-28T15:46:39.456Z,101078.31
2023-03-28T15:49:08.426Z,101078.47
2023-03-28T15:51:48.947Z,101074.88
2023-03-28T15:54:30.251Z,101077.63
2023-03-28T15:57:01.965Z,101071.59
2023-03-28T15:59:34.744Z,101076.25
2023-03-28T16:02:30.931Z,101082.19
2023-03-28T16:05:01.611Z,101085.66
2023-03-28T16:07:35.830Z,101076.16
2023-03-28T16:10:04.738Z,101072.97
2023-03-28T16:12:43.470Z,101072.13
2023-03-28T16:15:39.168Z,101061.38
2023-03-28T16:18:36.016Z,101054.81
2023-03-28T16:21:04.828Z,101039.88
2023-03-28T16:23:32.528Z,101040.47
2023-03-28T16:26:00.845Z,101039.13
2023-03-28T16:28:30.364Z,101033.47
2023-03-28T16:30:58.247Z,101036.53
2023-03-28T16:33:25.983Z,101024.41
2023-03-28T16:35:54.539Z,101011.78
2023-03-28T16:38:22.734Z,101018.81
2023-03-28T16:40:50.848Z,101023.06
2023-03-28T16:43:18.795Z,101010.06
2023-03-28T16:45:49.669Z,101009.91
2023-03-28T16:48:18.063Z,101002.34
2023-03-28T16:50:56.245Z,101005.22
2023-03-28T16:53:24.032Z,100994.13
2023-03-28T16:55:53.753Z,100993.34
2023-03-28T16:58:21.628Z,100998.88
2023-03-28T17:00:54.147Z,100985.59
2023-03-28T17:03:22.149Z,100984.50
2023-03-28T17:05:50.432Z,100972.38
2023-03-28T17:08:18.087Z,100971.22
2023-03-28T17:10:47.466Z,100984.31
2023-03-28T17:13:15.690Z,100970.09
2023-03-28T17:15:43.615Z,100975.41
2023-03-28T17:18:12.717Z,100969.25
2023-03-28T17:20:40.966Z,100975.66
2023-03-28T17:23:09.016Z,100967.50
2023-03-28T17:25:48.111Z,100959.63
2023-03-28T17:28:22.938Z,100964.22
2023-03-28T17:30:52.828Z,100968.97
2023-03-28T17:33:29.401Z,100969.22
2023-03-28T17:35:57.307Z,100961.47
2023-03-28T17:38:25.591Z,100958.97
2023-03-28T17:40:57.763Z,100955.44
2023-03-28T17:43:26.222Z,100960.78
2023-03-28T17:45:54.476Z,100959.13
2023-03-28T17:48:22.623Z,100956.75
2023-03-28T17:50:54.166Z,100947.44
2023-03-28T17:53:22.026Z,100950.91
2023-03-28T17:55:50.004Z,100943.94
2023-03-28T17:58:17.727Z,100945.78
2023-03-28T18:01:03.169Z,100941.78
2023-03-28T18:03:32.293Z,100952.09
2023-03-28T18:06:20.129Z,100954.78
2023-03-28T18:08:48.271Z,100968.59
2023-03-28T18:11:18.784Z,100966.97
2023-03-28T18:13:46.981Z,100969.59
2023-03-28T18:16:18.990Z,100963.72
2023-03-28T18:18:47.475Z,100967.19
2023-03-28T18:21:15.973Z,100964.69
2023-03-28T18:23:45.576Z,100967.34
2023-03-28T18:26:13.332Z,100968.34
2023-03-28T18:28:41.815Z,100976.31
2023-03-28T18:31:11.327Z,100975.63
2023-03-28T18:33:40.212Z,100976.72
2023-03-28T18:36:09.082Z,100974.28
2023-03-28T18:38:38.395Z,100979.59
2023-03-28T18:41:09.157Z,100978.78
2023-03-28T18:43:38.166Z,100983.22
2023-03-28T18:46:08.565Z,100982.47
2023-03-28T18:48:37.292Z,100978.31
2023-03-28T18:51:07.173Z,100986.94
2023-03-28T18:53:37.863Z,100981.75
2023-03-28T18:56:08.242Z,100989.47
2023-03-28T18:58:36.995Z,100994.66
2023-03-28T19:01:06.278Z,100992.06
2023-03-28T19:03:39.872Z,100986.06
2023-03-28T19:06:09.468Z,100982.47
2023-03-28T19:08:37.640Z,100984.13
2023-03-28T19:11:11.626Z,100989.25
2023-03-28T19:13:39.562Z,100987.47
2023-03-28T19:16:10.168Z,100983.16
2023-03-28T19:18:39.364Z,100981.50
2023-03-28T19:21:08.200Z,100982.47
2023-03-28T19:23:37.506Z,100967.69
2023-03-28T19:26:07.060Z,100953.72
2023-03-28T19:28:37.321Z,100959.16
2023-03-28T19:31:07.883Z,100977.63
2023-03-28T19:33:37.086Z,100971.50
2023-03-28T19:36:06.805Z,100964.69
2023-03-28T19:38:36.056Z,100965.81
2023-03-28T19:41:09.250Z,100968.41
2023-03-28T19:43:39.616Z,100970.88
2023-03-28T19:46:12.337Z,100970.13
2023-03-28T19:48:41.190Z,100977.13
2023-03-28T19:51:09.142Z,100979.69
2023-03-28T19:53:37.462Z,100970.72
2023-03-28T19:56:07.083Z,100956.13
2023-03-28T19:58:35.356Z,100958.03
2023-03-28T20:01:05.327Z,100970.91
2023-03-28T20:03:33.611Z,100975.22
2023-03-28T20:06:04.544Z,100983.78
2023-03-28T20:08:34.229Z,100988.09
2023-03-28T20:11:03.154Z,100992.41
2023-03-28T20:13:31.460Z,100999.31
2023-03-28T20:16:03.099Z,100997.56
2023-03-28T20:18:32.706Z,100998.38
2023-03-28T20:21:01.944Z,101000.03
2023-03-28T20:23:32.644Z,101000.09
2023-03-28T20:26:01.756Z,101008.59
2023-03-28T20:28:32.377Z,101014.59
2023-03-28T20:31:00.759Z,101002.41
2023-03-28T20:33:29.985Z,100997.22
2023-03-28T20:36:00.845Z,100982.84
2023-03-28T20:38:30.469Z,100938.88
2023-03-28T20:40:58.781Z,100898.50
2023-03-28T20:43:29.439Z,100882.09
2023-03-28T20:46:01.568Z,100864.03
2023-03-28T20:48:36.449Z,100907.59
2023-03-28T20:51:14.346Z,100943.00
2023-03-28T20:53:43.539Z,100943.66
2023-03-28T20:56:13.642Z,100928.03
2023-03-28T20:58:42.802Z,100914.31
2023-03-28T21:01:13.720Z,100929.28
2023-03-28T21:03:48.171Z,100936.81
2023-03-28T21:06:18.720Z,100940.31
2023-03-28T21:08:48.639Z,100918.50
2023-03-28T21:11:18.068Z,100919.50
2023-03-28T21:13:46.947Z,100929.88
2023-03-28T21:16:15.896Z,100925.50
2023-03-28T21:18:44.256Z,100919.47
2023-03-28T21:21:13.986Z,100932.50
2023-03-28T21:23:44.554Z,100931.66
2023-03-28T21:26:13.980Z,100932.56
2023-03-28T21:28:41.794Z,100926.38
2023-03-28T21:31:12.050Z,100919.03
2023-03-28T21:33:41.460Z,100915.56
2023-03-28T21:36:11.773Z,100904.53
2023-03-28T21:38:39.686Z,100903.00
2023-03-28T21:41:08.814Z,100906.53
2023-03-28T21:43:37.146Z,100903.34
2023-03-28T21:46:05.619Z,100898.97
2023-03-28T21:48:33.580Z,100886.88
2023-03-28T21:51:02.456Z,100894.56
2023-03-28T21:53:32.564Z,100902.41
2023-03-28T21:56:01.183Z,100909.16
2023-03-28T21:58:33.384Z,100911.75
2023-03-28T22:01:02.773Z,100913.41
2023-03-28T22:03:31.913Z,100911.03
2023-03-28T22:06:00.564Z,100917.19
2023-03-28T22:08:28.346Z,100928.50
2023-03-28T22:11:01.292Z,100934.53
2023-03-28T22:13:31.007Z,100928.41
2023-03-28T22:15:59.517Z,100933.72
2023-03-28T22:18:27.826Z,100938.97
2023-03-28T22:20:56.502Z,100941.50
2023-03-28T22:23:25.616Z,100943.53
2023-03-28T22:25:53.671Z,100940.06
2023-03-28T22:28:24.927Z,100940.97
2023-03-28T22:30:56.712Z,100935.94
2023-03-28T22:33:25.707Z,100945.47
2023-03-28T22:35:53.928Z,100928.22
2023-03-28T22:38:21.655Z,100925.56
2023-03-28T22:40:49.344Z,100916.16
2023-03-28T22:43:17.708Z,100913.63
2023-03-28T22:45:45.427Z,100911.06
2023-03-28T22:48:15.049Z,100905.13
2023-03-28T22:50:45.238Z,100898.19
2023-03-28T22:53:14.178Z,100905.13
2023-03-28T22:55:43.484Z,100899.06
2023-03-28T22:58:11.965Z,100898.97
2023-03-28T23:00:40.466Z,100894.66
2023-03-28T23:03:08.885Z,100887.81
2023-03-28T23:05:39.104Z,100877.44
2023-03-28T23:08:07.423Z,100876.66
2023-03-28T23:10:35.810Z,100864.47
2023-03-28T23:13:03.969Z,100863.59
2023-03-28T23:15:31.942Z,100865.31
2023-03-28T23:18:00.170Z,100860.09
2023-03-28T23:20:28.286Z,100843.84
2023-03-28T23:22:57.601Z,100835.22
2023-03-28T23:25:26.156Z,100824.84
2023-03-28T23:27:53.906Z,100840.41
2023-03-28T23:30:22.167Z,100840.38
2023-03-28T23:32:50.201Z,100833.44
2023-03-28T23:35:18.324Z,100819.44
2023-03-28T23:37:46.769Z,100825.44
2023-03-28T23:40:16.373Z,100820.34
2023-03-28T23:42:45.160Z,100814.25
2023-03-28T23:45:15.628Z,100799.78
2023-03-28T23:47:44.585Z,100775.00
2023-03-28T23:50:13.648Z,100782.69
2023-03-28T23:52:41.872Z,100786.03
2023-03-28T23:55:10.347Z,100776.50
2023-03-28T23:57:40.075Z,100777.34
